createdAt,value
2019-03-31T00:00:10.858Z,13.13
2019-03-31T00:02:47.874Z,13.10
2019-03-31T00:05:17.986Z,13.05
2019-03-31T00:07:49.046Z,12.07
2019-03-31T00:10:25.007Z,13.43
2019-03-31T00:12:55.098Z,12.28
2019-03-31T00:15:25.182Z,12.45
2019-03-31T00:17:55.295Z,12.60
2019-03-31T00:20:27.279Z,12.78
2019-03-31T00:23:06.335Z,11.57
2019-03-31T00:25:36.502Z,11.45
2019-03-31T00:28:18.022Z,11.93
2019-03-31T00:30:48.403Z,12.20
2019-03-31T00:33:20.394Z,12.15
2019-03-31T00:35:50.502Z,11.38
2019-03-31T00:38:26.790Z,11.48
2019-03-31T00:40:58.866Z,12.15
2019-03-31T00:43:28.930Z,14.33
2019-03-31T00:46:00.038Z,12.37
2019-03-31T00:48:30.130Z,11.60
2019-03-31T00:51:01.194Z,10.93
2019-03-31T00:53:42.046Z,12.65
2019-03-31T00:56:14.108Z,11.63
2019-03-31T00:58:46.191Z,12.28
2019-03-31T01:01:19.054Z,12.03
2019-03-31T01:03:50.430Z,12.50
2019-03-31T01:56:12.726Z,12.30
2019-03-31T01:58:45.843Z,11.80
2019-03-31T02:01:22.054Z,12.37
2019-03-31T02:03:53.132Z,12.88
2019-03-31T02:06:23.734Z,12.00
2019-03-31T02:08:58.832Z,13.22
2019-03-31T02:11:28.901Z,13.85
2019-03-31T02:14:05.468Z,13.05
2019-03-31T02:16:37.478Z,13.15
2019-03-31T02:19:14.502Z,13.10
2019-03-31T02:21:44.594Z,13.93
2019-03-31T02:24:15.602Z,13.30
2019-03-31T02:26:45.690Z,13.40
2019-03-31T02:29:26.722Z,14.47
2019-03-31T02:31:56.842Z,16.00
2019-03-31T02:34:26.932Z,13.85
2019-03-31T02:36:57.027Z,15.35
2019-03-31T02:39:27.147Z,15.45
2019-03-31T02:41:57.222Z,14.78
2019-03-31T02:44:27.338Z,15.55
2019-03-31T02:46:58.365Z,16.60
2019-03-31T02:49:28.518Z,17.60
2019-03-31T02:52:00.607Z,17.12
2019-03-31T02:54:32.708Z,16.90
2019-03-31T02:57:04.881Z,15.50
2019-03-31T02:59:38.260Z,15.68
2019-03-31T03:02:10.875Z,16.30
2019-03-31T03:04:41.974Z,18.52
2019-03-31T03:07:18.395Z,16.12
2019-03-31T03:10:04.593Z,16.55
2019-03-31T03:12:37.973Z,16.65
2019-03-31T03:15:08.399Z,16.87
2019-03-31T03:17:38.494Z,16.82
2019-03-31T03:20:09.664Z,18.02
2019-03-31T03:22:40.672Z,18.40
2019-03-31T03:25:10.784Z,18.02
2019-03-31T03:27:40.867Z,16.85
2019-03-31T03:30:11.976Z,15.70
2019-03-31T03:33:12.550Z,17.05
2019-03-31T03:35:19.690Z,17.23
2019-03-31T03:37:49.788Z,17.62
2019-03-31T03:40:19.895Z,18.00
2019-03-31T03:42:49.982Z,17.23
2019-03-31T03:45:20.078Z,19.27
2019-03-31T03:47:55.983Z,18.40
2019-03-31T03:50:26.092Z,18.75
2019-03-31T03:52:59.404Z,17.17
2019-03-31T03:55:33.527Z,18.75
2019-03-31T03:58:07.306Z,20.50
2019-03-31T04:00:38.369Z,17.75
2019-03-31T04:03:29.134Z,18.57
2019-03-31T04:05:48.329Z,18.48
2019-03-31T04:08:18.428Z,18.50
2019-03-31T04:10:54.104Z,18.98
2019-03-31T04:13:31.043Z,18.10
2019-03-31T04:16:02.165Z,18.27
2019-03-31T04:18:37.243Z,17.98
2019-03-31T04:21:09.679Z,19.10
2019-03-31T04:23:40.831Z,17.17
2019-03-31T04:26:19.116Z,18.37
2019-03-31T04:29:07.346Z,19.37
2019-03-31T04:31:37.411Z,19.35
2019-03-31T04:34:14.311Z,18.98
2019-03-31T04:36:50.178Z,18.92
2019-03-31T04:39:20.516Z,17.73
2019-03-31T04:41:50.604Z,18.70
2019-03-31T04:44:33.723Z,18.35
2019-03-31T04:47:13.055Z,18.65
2019-03-31T04:49:46.185Z,18.92
2019-03-31T04:52:16.258Z,17.92
2019-03-31T04:55:07.572Z,18.67
2019-03-31T04:57:37.662Z,18.82
2019-03-31T05:00:09.899Z,17.60
2019-03-31T05:02:41.938Z,19.15
2019-03-31T05:05:12.086Z,17.00
2019-03-31T05:07:44.132Z,17.73
2019-03-31T05:10:18.346Z,19.02
2019-03-31T05:12:50.424Z,17.73
2019-03-31T05:15:22.490Z,18.55
2019-03-31T05:17:52.570Z,18.90
2019-03-31T05:20:25.323Z,18.48
2019-03-31T05:23:10.748Z,17.80
2019-03-31T05:25:41.775Z,19.27
2019-03-31T05:28:25.654Z,18.32
2019-03-31T05:30:55.725Z,17.80
2019-03-31T05:33:25.799Z,18.85
2019-03-31T05:36:07.984Z,18.50
2019-03-31T05:38:38.991Z,17.40
2019-03-31T05:41:15.083Z,18.60
2019-03-31T05:43:45.180Z,18.77
2019-03-31T05:46:15.251Z,18.42
2019-03-31T05:48:46.335Z,17.05
2019-03-31T05:51:25.264Z,16.75
2019-03-31T05:54:11.574Z,18.00
2019-03-31T05:56:41.686Z,17.73
2019-03-31T05:59:11.774Z,19.27
2019-03-31T06:01:47.650Z,16.27
2019-03-31T06:04:33.083Z,17.85
2019-03-31T06:06:55.592Z,17.55
2019-03-31T06:09:25.935Z,16.32
2019-03-31T06:11:56.047Z,18.57
2019-03-31T06:14:26.146Z,16.82
2019-03-31T06:16:56.271Z,17.27
2019-03-31T06:19:35.423Z,15.75
2019-03-31T06:22:11.693Z,16.55
2019-03-31T06:24:42.778Z,15.25
2019-03-31T06:27:15.957Z,20.10
2019-03-31T06:29:46.118Z,16.57
2019-03-31T06:32:19.082Z,17.30
2019-03-31T06:34:56.255Z,18.10
2019-03-31T06:37:26.383Z,15.70
2019-03-31T06:39:57.199Z,16.60
2019-03-31T06:42:27.296Z,17.57
2019-03-31T06:45:08.178Z,20.83
2019-03-31T06:47:40.294Z,18.33
2019-03-31T06:50:11.462Z,17.90
2019-03-31T06:52:41.606Z,18.50
2019-03-31T06:55:15.755Z,18.20
2019-03-31T06:57:51.811Z,16.80
2019-03-31T07:00:21.944Z,16.87
2019-03-31T07:02:52.067Z,17.10
2019-03-31T07:05:30.046Z,16.50
2019-03-31T07:08:23.560Z,16.87
2019-03-31T07:11:06.559Z,17.90
2019-03-31T07:13:38.646Z,15.90
2019-03-31T07:16:09.735Z,15.63
2019-03-31T07:18:39.918Z,15.87
2019-03-31T07:21:10.076Z,17.40
2019-03-31T07:23:53.950Z,15.33
2019-03-31T07:26:24.054Z,15.27
2019-03-31T07:28:54.182Z,15.23
2019-03-31T07:31:25.234Z,14.80
2019-03-31T07:33:57.291Z,13.63
2019-03-31T07:36:28.394Z,13.17
2019-03-31T07:38:58.522Z,13.90
2019-03-31T07:41:28.856Z,13.37
2019-03-31T07:43:59.064Z,16.90
2019-03-31T07:46:30.742Z,14.00
2019-03-31T07:49:00.847Z,13.93
2019-03-31T07:51:30.942Z,15.17
2019-03-31T07:54:04.094Z,14.70
2019-03-31T07:56:34.239Z,14.27
2019-03-31T07:59:04.377Z,15.40
2019-03-31T08:01:36.342Z,14.40
2019-03-31T08:04:07.423Z,14.77
2019-03-31T08:06:43.271Z,13.97
2019-03-31T08:09:15.306Z,13.70
2019-03-31T08:11:48.495Z,15.00
2019-03-31T08:14:19.539Z,14.70
2019-03-31T08:16:51.604Z,14.53
2019-03-31T08:19:24.870Z,14.23
2019-03-31T08:22:17.167Z,14.30
2019-03-31T08:24:47.368Z,14.00
2019-03-31T08:27:17.584Z,13.30
2019-03-31T08:29:59.875Z,14.43
2019-03-31T08:32:28.595Z,12.57
2019-03-31T08:34:58.814Z,14.20
2019-03-31T08:37:29.494Z,13.20
2019-03-31T08:40:02.528Z,13.47
2019-03-31T08:42:32.644Z,12.70
2019-03-31T08:45:02.736Z,11.83
2019-03-31T08:47:33.850Z,13.17
2019-03-31T08:50:04.647Z,12.27
2019-03-31T08:52:34.781Z,11.37
2019-03-31T08:55:06.255Z,11.77
2019-03-31T08:57:37.334Z,15.63
2019-03-31T09:00:12.519Z,11.47
2019-03-31T09:02:44.568Z,12.27
2019-03-31T09:05:14.874Z,11.60
2019-03-31T09:07:44.965Z,11.77
2019-03-31T09:10:17.819Z,11.60
2019-03-31T09:12:48.963Z,12.03
2019-03-31T09:15:25.948Z,11.63
2019-03-31T09:17:57.931Z,13.00
2019-03-31T09:20:30.002Z,10.80
2019-03-31T09:23:00.086Z,11.53
2019-03-31T09:25:30.179Z,12.13
2019-03-31T09:28:00.292Z,12.30
2019-03-31T09:30:30.379Z,11.73
2019-03-31T09:33:02.735Z,10.57
2019-03-31T09:35:32.876Z,11.87
2019-03-31T09:38:03.001Z,12.40
2019-03-31T09:40:36.367Z,11.93
2019-03-31T09:43:06.651Z,11.80
2019-03-31T09:45:36.792Z,10.53
2019-03-31T09:48:10.091Z,10.90
2019-03-31T09:50:42.106Z,11.23
2019-03-31T09:53:24.998Z,11.53
2019-03-31T09:55:55.391Z,11.87
2019-03-31T09:58:25.575Z,11.47
2019-03-31T10:00:57.585Z,11.60
2019-03-31T10:03:28.651Z,9.97
2019-03-31T10:06:09.893Z,11.20
2019-03-31T10:08:32.644Z,11.70
2019-03-31T10:11:03.844Z,11.47
2019-03-31T10:13:33.939Z,12.27
2019-03-31T10:16:04.119Z,11.40
2019-03-31T10:18:34.291Z,10.67
2019-03-31T10:21:04.439Z,11.83
2019-03-31T10:23:36.482Z,11.60
2019-03-31T10:26:06.574Z,10.40
2019-03-31T10:28:37.616Z,11.57
2019-03-31T10:31:09.646Z,10.90
2019-03-31T10:33:39.746Z,11.97
2019-03-31T10:36:12.707Z,10.57
2019-03-31T10:38:41.707Z,11.07
2019-03-31T10:41:12.022Z,10.60
2019-03-31T10:43:42.130Z,10.00
2019-03-31T10:46:12.279Z,10.40
2019-03-31T10:48:42.392Z,9.80
2019-03-31T10:51:20.467Z,8.73
2019-03-31T10:53:50.562Z,13.37
2019-03-31T10:56:27.587Z,9.23
2019-03-31T10:58:58.287Z,9.20
2019-03-31T11:01:28.378Z,11.53
2019-03-31T11:03:59.491Z,10.50
2019-03-31T11:06:29.584Z,9.63
2019-03-31T11:08:59.723Z,8.57
2019-03-31T11:11:29.838Z,8.10
2019-03-31T11:13:59.931Z,6.67
2019-03-31T11:16:30.099Z,8.00
2019-03-31T11:19:03.123Z,6.60
2019-03-31T11:21:40.643Z,6.33
2019-03-31T11:24:17.660Z,6.50
2019-03-31T11:26:47.764Z,6.87
2019-03-31T11:29:17.844Z,7.10
2019-03-31T11:31:48.875Z,6.00
2019-03-31T11:34:20.954Z,7.00
2019-03-31T11:36:51.931Z,6.97
2019-03-31T11:39:23.267Z,6.80
2019-03-31T11:41:55.302Z,6.50
2019-03-31T11:44:27.672Z,5.30
2019-03-31T11:46:58.126Z,5.57
2019-03-31T11:49:29.130Z,6.10
2019-03-31T11:51:59.234Z,6.20
2019-03-31T11:54:29.331Z,5.40
2019-03-31T11:56:59.404Z,5.30
2019-03-31T11:59:29.483Z,5.67
2019-03-31T12:02:00.556Z,5.37
2019-03-31T12:04:30.905Z,5.40
2019-03-31T12:07:00.970Z,5.03
2019-03-31T12:09:32.018Z,5.80
2019-03-31T12:12:02.112Z,5.10
2019-03-31T12:14:32.214Z,5.07
2019-03-31T12:17:03.330Z,4.33
2019-03-31T12:19:34.362Z,4.17
2019-03-31T12:22:05.486Z,6.20
2019-03-31T12:24:35.566Z,4.07
2019-03-31T12:27:05.787Z,4.67
2019-03-31T12:29:35.863Z,5.13
2019-03-31T12:32:05.954Z,5.67
2019-03-31T12:34:43.242Z,6.20
2019-03-31T12:37:14.718Z,5.67
2019-03-31T12:39:48.435Z,5.47
2019-03-31T12:42:18.970Z,5.80
2019-03-31T12:44:59.633Z,5.70
2019-03-31T12:47:34.002Z,5.57
2019-03-31T12:50:06.793Z,7.20
2019-03-31T12:52:46.624Z,6.70
2019-03-31T12:55:11.148Z,5.90
2019-03-31T12:57:42.930Z,6.20
2019-03-31T13:00:13.346Z,6.23
2019-03-31T13:02:44.658Z,5.93
2019-03-31T13:05:16.269Z,5.70
2019-03-31T13:07:56.731Z,6.13
2019-03-31T13:10:23.571Z,5.23
2019-03-31T13:12:53.683Z,6.00
2019-03-31T13:15:24.646Z,5.67
2019-03-31T13:17:54.740Z,6.60
2019-03-31T13:20:25.910Z,6.20
2019-03-31T13:22:57.073Z,6.20
2019-03-31T13:25:27.146Z,5.30
2019-03-31T13:28:05.682Z,5.60
2019-03-31T13:30:35.833Z,5.60
2019-03-31T13:33:06.106Z,5.30
2019-03-31T13:35:36.178Z,6.33
2019-03-31T13:38:11.496Z,6.10
2019-03-31T13:40:38.270Z,5.73
2019-03-31T13:43:08.362Z,6.70
2019-03-31T13:45:38.490Z,5.40
2019-03-31T13:48:08.610Z,6.57
2019-03-31T13:50:38.679Z,6.17
2019-03-31T13:53:09.689Z,5.10
2019-03-31T13:55:39.767Z,5.00
2019-03-31T13:58:10.969Z,4.00
2019-03-31T14:00:42.192Z,4.63
2019-03-31T14:03:12.328Z,4.97
2019-03-31T14:05:42.528Z,5.13
2019-03-31T14:08:24.944Z,4.10
2019-03-31T14:10:45.373Z,4.43
2019-03-31T14:13:15.759Z,4.73
2019-03-31T14:15:47.755Z,4.93
2019-03-31T14:18:18.863Z,6.37
2019-03-31T14:20:49.015Z,5.60
2019-03-31T14:23:19.140Z,5.97
2019-03-31T14:25:49.331Z,4.90
2019-03-31T14:28:20.359Z,5.00
2019-03-31T14:30:50.488Z,5.50
2019-03-31T14:33:20.599Z,4.77
2019-03-31T14:35:50.682Z,4.50
2019-03-31T14:38:20.776Z,4.87
2019-03-31T14:40:50.888Z,4.77
2019-03-31T14:43:21.011Z,5.07
2019-03-31T14:45:51.091Z,5.40
2019-03-31T14:48:22.167Z,5.40
2019-03-31T14:50:52.263Z,4.43
2019-03-31T14:53:22.392Z,5.13
2019-03-31T14:55:53.795Z,4.80
2019-03-31T14:58:23.910Z,4.87
2019-03-31T15:00:55.064Z,5.40
2019-03-31T15:03:25.157Z,5.67
2019-03-31T15:05:56.136Z,5.70
2019-03-31T15:08:26.235Z,5.50
2019-03-31T15:10:56.339Z,5.60
2019-03-31T15:13:28.394Z,4.47
2019-03-31T15:15:59.404Z,5.57
2019-03-31T15:18:29.688Z,5.30
2019-03-31T15:21:06.544Z,4.67
2019-03-31T15:23:36.696Z,5.60
2019-03-31T15:26:06.908Z,4.57
2019-03-31T15:28:38.087Z,5.60
2019-03-31T15:31:10.313Z,5.20
2019-03-31T15:33:41.393Z,5.20
2019-03-31T15:36:13.081Z,5.13
2019-03-31T15:38:43.182Z,5.57
2019-03-31T15:41:21.126Z,4.33
2019-03-31T15:43:47.672Z,5.33
2019-03-31T15:46:18.599Z,4.40
2019-03-31T15:48:49.707Z,5.67
2019-03-31T15:51:20.684Z,4.70
2019-03-31T15:53:50.780Z,5.00
2019-03-31T15:56:21.867Z,4.57
2019-03-31T15:58:52.896Z,4.90
2019-03-31T16:01:22.995Z,4.17
2019-03-31T16:03:56.067Z,4.90
2019-03-31T16:06:27.127Z,4.43
2019-03-31T16:08:58.199Z,4.30
2019-03-31T16:11:28.299Z,4.40
2019-03-31T16:14:00.387Z,5.03
2019-03-31T16:16:30.964Z,4.87
2019-03-31T16:19:01.111Z,5.10
2019-03-31T16:21:31.187Z,5.20
2019-03-31T16:24:04.595Z,4.43
2019-03-31T16:26:35.585Z,4.10
2019-03-31T16:29:05.751Z,4.90
2019-03-31T16:31:37.775Z,4.83
2019-03-31T16:34:07.868Z,5.03
2019-03-31T16:36:41.199Z,5.23
2019-03-31T16:39:11.368Z,5.40
2019-03-31T16:41:44.387Z,5.50
2019-03-31T16:44:16.050Z,6.77
2019-03-31T16:46:46.155Z,5.20
2019-03-31T16:49:16.255Z,5.30
2019-03-31T16:51:52.347Z,4.50
2019-03-31T16:54:22.551Z,5.53
2019-03-31T16:56:53.499Z,6.10
2019-03-31T16:59:23.603Z,5.80
2019-03-31T17:01:55.775Z,6.90
2019-03-31T17:04:26.820Z,6.77
2019-03-31T17:06:57.923Z,7.80
2019-03-31T17:09:28.063Z,7.40
2019-03-31T17:12:00.163Z,7.70
2019-03-31T17:14:30.295Z,7.13
2019-03-31T17:17:09.544Z,6.57
2019-03-31T17:19:39.663Z,8.97
2019-03-31T17:22:10.651Z,7.43
2019-03-31T17:24:42.647Z,8.03
2019-03-31T17:27:18.859Z,8.60
2019-03-31T17:29:55.247Z,8.13
2019-03-31T17:32:31.409Z,8.37
2019-03-31T17:35:01.508Z,7.97
2019-03-31T17:37:32.312Z,8.50
2019-03-31T17:40:13.645Z,8.40
2019-03-31T17:42:45.700Z,9.50
2019-03-31T17:45:17.398Z,9.50
2019-03-31T17:47:48.683Z,12.87
2019-03-31T17:50:24.659Z,13.80
2019-03-31T17:53:03.875Z,15.30
2019-03-31T17:55:33.631Z,16.57
2019-03-31T17:58:07.383Z,17.30
2019-03-31T18:00:37.535Z,19.20
2019-03-31T18:03:16.979Z,20.73
2019-03-31T18:05:51.285Z,20.23
2019-03-31T18:08:22.383Z,21.17
2019-03-31T18:10:54.531Z,23.30
2019-03-31T18:13:27.699Z,24.40
2019-03-31T18:15:57.847Z,21.90
2019-03-31T18:18:27.944Z,22.00
2019-03-31T18:21:07.193Z,21.50
2019-03-31T18:23:39.843Z,21.90
2019-03-31T18:26:10.879Z,21.30
2019-03-31T18:28:43.675Z,19.50
2019-03-31T18:31:15.979Z,21.60
2019-03-31T18:33:46.163Z,20.47
2019-03-31T18:36:35.586Z,22.17
2019-03-31T18:38:54.035Z,24.37
2019-03-31T18:41:24.295Z,24.27
2019-03-31T18:44:01.263Z,26.60
2019-03-31T18:46:32.686Z,28.87
2019-03-31T18:49:05.783Z,27.60
2019-03-31T18:51:35.987Z,29.13
2019-03-31T18:54:07.876Z,30.23
2019-03-31T18:56:53.604Z,30.20
2019-03-31T18:59:34.199Z,30.60
2019-03-31T19:02:25.378Z,32.00
2019-03-31T19:05:12.031Z,33.20
2019-03-31T19:07:53.592Z,33.07
2019-03-31T19:10:26.255Z,33.90
2019-03-31T19:13:01.103Z,32.23
2019-03-31T19:15:53.627Z,33.87
2019-03-31T19:18:41.456Z,33.55
2019-03-31T19:21:24.687Z,33.10
2019-03-31T19:23:56.463Z,31.10
2019-03-31T19:26:48.515Z,31.27
2019-03-31T19:29:17.171Z,31.20
2019-03-31T19:32:09.687Z,31.70
2019-03-31T19:34:44.331Z,31.20
2019-03-31T19:37:19.832Z,33.17
2019-03-31T19:39:57.167Z,30.88
2019-03-31T19:42:34.835Z,30.75
2019-03-31T19:45:11.440Z,32.95
2019-03-31T19:47:59.319Z,32.48
2019-03-31T19:50:34.916Z,31.35
2019-03-31T19:53:08.793Z,31.30
2019-03-31T19:55:49.665Z,30.48
2019-03-31T19:58:32.214Z,30.00
2019-03-31T20:01:07.655Z,30.65
2019-03-31T20:03:40.359Z,30.15
2019-03-31T20:06:29.735Z,30.88
2019-03-31T20:09:04.065Z,31.05
2019-03-31T20:11:43.567Z,31.97
2019-03-31T20:14:17.883Z,31.57
2019-03-31T20:16:59.111Z,30.40
2019-03-31T20:19:31.780Z,32.15
2019-03-31T20:22:06.255Z,30.12
2019-03-31T20:24:40.831Z,31.40
2019-03-31T20:27:15.231Z,32.00
2019-03-31T20:29:48.002Z,30.90
2019-03-31T20:32:26.643Z,32.42
2019-03-31T20:35:04.193Z,31.87
2019-03-31T20:37:41.672Z,32.78
2019-03-31T20:40:13.560Z,33.70
2019-03-31T20:42:48.371Z,32.13
2019-03-31T20:45:18.490Z,32.93
2019-03-31T20:47:48.644Z,33.28
2019-03-31T20:50:21.712Z,32.80
2019-03-31T20:52:52.704Z,32.25
2019-03-31T20:55:22.791Z,30.20
2019-03-31T20:57:52.887Z,33.40
2019-03-31T21:00:22.999Z,32.55
2019-03-31T21:02:55.007Z,33.58
2019-03-31T21:05:29.207Z,32.10
2019-03-31T21:08:00.376Z,31.95
2019-03-31T21:10:30.483Z,33.95
2019-03-31T21:13:12.497Z,32.40
2019-03-31T21:15:42.655Z,30.23
2019-03-31T21:18:14.762Z,32.05
2019-03-31T21:20:44.844Z,34.40
2019-03-31T21:23:15.180Z,31.77
2019-03-31T21:25:45.267Z,31.00
2019-03-31T21:28:16.399Z,33.70
2019-03-31T21:30:56.333Z,31.60
2019-03-31T21:33:26.411Z,30.72
2019-03-31T21:35:59.997Z,30.20
2019-03-31T21:38:32.107Z,28.15
2019-03-31T21:41:02.191Z,31.65
2019-03-31T21:43:32.353Z,29.07
2019-03-31T21:46:02.455Z,32.65
2019-03-31T21:48:35.527Z,29.00
2019-03-31T21:51:05.681Z,29.75
2019-03-31T21:53:35.828Z,30.43
2019-03-31T21:56:06.827Z,29.95
2019-03-31T21:58:37.107Z,31.07
2019-03-31T22:01:07.343Z,32.55
2019-03-31T22:03:38.403Z,27.65
2019-03-31T22:06:10.435Z,30.15
2019-03-31T22:08:45.479Z,31.00
2019-03-31T22:11:15.559Z,32.08
2019-03-31T22:13:51.467Z,28.92
2019-03-31T22:16:21.533Z,32.28
2019-03-31T22:18:56.242Z,30.17
2019-03-31T22:21:26.331Z,29.50
2019-03-31T22:23:58.148Z,31.15
2019-03-31T22:26:30.378Z,28.87
2019-03-31T22:29:00.476Z,31.23
2019-03-31T22:31:36.286Z,30.30
2019-03-31T22:34:07.491Z,30.62
2019-03-31T22:36:44.295Z,33.25
2019-03-31T22:39:14.395Z,32.35
2019-03-31T22:41:45.395Z,32.25
2019-03-31T22:44:15.555Z,30.90
2019-03-31T22:46:54.147Z,32.80
2019-03-31T22:49:18.487Z,29.45
2019-03-31T22:51:50.487Z,30.72
2019-03-31T22:54:21.253Z,32.17
2019-03-31T22:56:51.398Z,31.15
2019-03-31T22:59:21.571Z,29.65
2019-03-31T23:01:52.680Z,30.37
2019-03-31T23:04:22.763Z,31.97
2019-03-31T23:06:52.851Z,32.55
2019-03-31T23:09:23.919Z,31.20
2019-03-31T23:11:56.925Z,31.55
2019-03-31T23:14:27.017Z,31.85
2019-03-31T23:17:06.392Z,34.30
2019-03-31T23:19:42.495Z,30.57
2019-03-31T23:22:20.375Z,30.72
2019-03-31T23:24:57.243Z,32.50
2019-03-31T23:27:28.303Z,32.33
2019-03-31T23:29:58.382Z,32.15
2019-03-31T23:32:30.372Z,35.33
2019-03-31T23:35:01.453Z,31.77
2019-03-31T23:37:31.535Z,34.98
2019-03-31T23:40:03.823Z,32.88
2019-03-31T23:42:39.959Z,34.40
2019-03-31T23:45:11.755Z,32.53
2019-03-31T23:47:42.060Z,33.78
2019-03-31T23:50:12.695Z,34.23
2019-03-31T23:52:42.983Z,32.40
2019-03-31T23:55:14.557Z,36.03
2019-03-31T23:57:47.640Z,32.08
